Time;durP1;ratioP1;P1;durP2;ratioP2;P2;SDS_P1;SDS_P2;PMS_P1;PMS_P2;Temp;Humidity;BMP_temperature;BMP_pressure;BME280_temperature;BME280_humidity;BME280_pressure;Samples;Min_cycle;Max_cycle;Signal;HPM_P1;HPM_P2
2022/05/15 00:04:07;;;;;;;5.28;1.75;;;21.00;48.20;;;;;;10080837;28;20045;-64
2022/05/15 00:08:58;;;;;;;2.15;1.50;;;21.00;48.60;;;;;;10077453;28;20029;-62
2022/05/15 00:13:49;;;;;;;2.92;1.70;;;20.90;49.10;;;;;;10080163;28;20037;-63
2022/05/15 00:18:41;;;;;;;2.53;2.17;;;20.80;49.20;;;;;;10087637;28;20033;-62
2022/05/15 00:23:31;;;;;;;4.38;2.15;;;20.90;49.20;;;;;;10086658;28;20037;-62
2022/05/15 00:28:22;;;;;;;5.93;1.88;;;20.60;50.00;;;;;;10069603;28;20036;-63
2022/05/15 00:33:13;;;;;;;3.45;2.33;;;20.70;49.90;;;;;;10088316;28;20112;-63
2022/05/15 00:38:05;;;;;;;2.13;1.65;;;20.70;50.00;;;;;;10080221;28;20135;-65
2022/05/15 00:42:56;;;;;;;2.85;1.98;;;20.70;50.80;;;;;;10071111;28;20395;-61
2022/05/15 00:47:47;;;;;;;3.15;2.78;;;20.70;50.40;;;;;;10067235;28;20017;-62
2022/05/15 00:52:41;;;;;;;2.55;1.60;;;20.60;50.50;;;;;;10085697;28;20037;-61
2022/05/15 00:57:47;;;;;;;3.42;2.17;;;20.60;50.70;;;;;;10090998;28;20041;-62
2022/05/15 01:03:06;;;;;;;4.15;1.88;;;20.30;51.80;;;;;;10081159;28;20495;-64
2022/05/15 01:07:57;;;;;;;3.20;1.73;;;20.30;51.70;;;;;;10074172;28;20573;-65
2022/05/15 01:12:48;;;;;;;6.65;3.05;;;20.40;51.90;;;;;;10081270;28;20045;-62
2022/05/15 01:17:38;;;;;;;6.05;2.75;;;20.30;51.30;;;;;;10074494;28;20042;-61
2022/05/15 01:22:30;;;;;;;3.03;1.73;;;20.10;51.70;;;;;;10080581;28;20037;-63
2022/05/15 01:27:21;;;;;;;3.30;2.00;;;20.00;52.10;;;;;;10072842;28;20025;-63
2022/05/15 01:32:13;;;;;;;2.30;2.05;;;20.00;52.20;;;;;;10090695;28;20036;-64
2022/05/15 01:37:04;;;;;;;4.68;2.47;;;19.90;52.30;;;;;;10078301;28;20033;-63
2022/05/15 01:41:56;;;;;;;4.10;2.63;;;19.90;52.60;;;;;;10069850;28;20501;-62
2022/05/15 01:46:48;;;;;;;2.15;1.90;;;19.70;52.80;;;;;;10071513;28;20258;-63
2022/05/15 01:51:41;;;;;;;3.00;1.77;;;19.70;53.10;;;;;;10093528;28;20044;-63
2022/05/15 01:56:32;;;;;;;5.03;2.42;;;19.50;53.60;;;;;;10079904;28;20502;-61
2022/05/15 02:01:24;;;;;;;4.82;2.30;;;19.50;53.80;;;;;;10090361;28;20501;-63
2022/05/15 02:06:14;;;;;;;3.33;2.10;;;19.50;53.80;;;;;;10088738;28;20018;-63
2022/05/15 02:11:06;;;;;;;4.28;2.17;;;19.40;54.00;;;;;;10106240;28;20032;-63
2022/05/15 02:15:57;;;;;;;5.10;2.10;;;19.20;54.50;;;;;;10076025;28;20276;-63
2022/05/15 02:20:49;;;;;;;3.47;2.15;;;19.20;54.50;;;;;;10081061;28;20037;-62
2022/05/15 02:25:40;;;;;;;3.38;2.75;;;19.10;54.60;;;;;;10068994;28;20206;-62
2022/05/15 02:30:31;;;;;;;3.65;2.25;;;19.00;55.00;;;;;;10100697;28;20025;-63
2022/05/15 02:35:22;;;;;;;3.80;2.15;;;19.10;54.90;;;;;;10093448;28;20498;-62
2022/05/15 02:40:14;;;;;;;4.38;2.28;;;18.90;55.20;;;;;;10087385;28;20043;-63
2022/05/15 02:45:06;;;;;;;4.53;2.25;;;19.00;55.30;;;;;;10076881;28;20401;-64
2022/05/15 02:55:27;;;;;;;3.13;2.42;;;18.80;55.70;;;;;;9976125;28;20035;-62
2022/05/15 03:00:21;;;;;;;4.25;2.67;;;18.60;56.00;;;;;;10059714;28;20047;-63
2022/05/15 03:05:13;;;;;;;6.80;2.70;;;18.60;56.10;;;;;;10086354;28;20183;-63
2022/05/15 03:10:06;;;;;;;11.25;2.80;;;18.60;56.20;;;;;;10081808;28;20036;-63
2022/05/15 03:14:56;;;;;;;5.05;2.08;;;18.60;56.40;;;;;;10077578;28;20108;-62
2022/05/15 03:19:47;;;;;;;4.80;2.50;;;18.60;56.70;;;;;;10089544;28;20099;-63
2022/05/15 03:24:38;;;;;;;3.03;2.20;;;18.50;56.90;;;;;;10081478;28;20596;-64
2022/05/15 03:29:29;;;;;;;4.28;2.42;;;18.40;57.40;;;;;;10100661;28;20032;-63
2022/05/15 03:34:20;;;;;;;5.25;3.03;;;18.30;57.20;;;;;;10093289;28;20325;-62
2022/05/15 03:39:14;;;;;;;5.05;2.35;;;18.20;57.40;;;;;;10071947;28;20028;-63
2022/05/15 03:44:06;;;;;;;3.92;2.78;;;18.20;57.90;;;;;;10074906;28;20059;-62
2022/05/15 03:48:58;;;;;;;4.03;2.30;;;18.10;57.90;;;;;;10085496;28;20421;-65
2022/05/15 03:53:48;;;;;;;3.50;2.00;;;18.10;58.20;;;;;;10089432;28;20162;-63
2022/05/15 03:58:40;;;;;;;5.57;2.45;;;18.10;58.30;;;;;;10090433;28;20116;-62
2022/05/15 04:03:31;;;;;;;4.38;2.75;;;18.00;58.30;;;;;;10091171;28;20139;-62
2022/05/15 04:08:22;;;;;;;3.63;2.38;;;18.00;58.70;;;;;;10086677;28;20379;-63
2022/05/15 04:13:13;;;;;;;4.50;2.80;;;18.00;58.90;;;;;;10079050;28;20028;-63
2022/05/15 04:18:05;;;;;;;6.80;2.72;;;18.00;58.90;;;;;;10080518;28;20048;-63
2022/05/15 04:22:56;;;;;;;4.65;2.47;;;18.00;59.20;;;;;;10087047;28;20118;-63
2022/05/15 04:27:47;;;;;;;3.25;2.80;;;18.00;59.20;;;;;;10082155;28;20126;-63
2022/05/15 04:32:38;;;;;;;6.38;3.00;;;17.90;59.50;;;;;;10091023;28;20017;-65
2022/05/15 04:37:29;;;;;;;3.45;2.53;;;17.90;59.70;;;;;;10077457;28;20076;-65
2022/05/15 04:42:20;;;;;;;4.50;2.53;;;17.90;59.70;;;;;;10078709;28;20037;-66
2022/05/15 04:47:13;;;;;;;4.72;2.53;;;17.90;60.00;;;;;;10077135;28;20025;-65
2022/05/15 04:52:04;;;;;;;3.80;2.97;;;18.00;60.00;;;;;;10098310;28;20037;-65
2022/05/15 04:56:55;;;;;;;5.68;2.85;;;18.00;59.90;;;;;;10102312;28;20024;-64
2022/05/15 05:01:45;;;;;;;6.18;2.10;;;17.90;60.40;;;;;;10089829;28;20383;-67
2022/05/15 05:06:36;;;;;;;4.53;2.65;;;17.90;60.90;;;;;;10086254;28;20224;-64
2022/05/15 05:11:27;;;;;;;4.90;3.08;;;18.00;60.80;;;;;;10082860;28;20025;-63
2022/05/15 05:16:18;;;;;;;4.10;3.00;;;18.00;60.90;;;;;;10071219;28;20029;-64
2022/05/15 05:21:09;;;;;;;3.80;3.00;;;18.00;61.20;;;;;;10084567;28;20044;-66
2022/05/15 05:26:00;;;;;;;4.32;2.65;;;18.10;61.10;;;;;;10089330;28;20112;-65
2022/05/15 05:30:51;;;;;;;5.43;3.15;;;18.20;61.20;;;;;;10100564;28;20021;-65
2022/05/15 05:35:42;;;;;;;4.10;2.60;;;18.20;61.70;;;;;;10090496;28;20498;-63
2022/05/15 05:40:33;;;;;;;3.60;2.85;;;18.10;62.00;;;;;;10075796;28;20045;-62
2022/05/15 05:45:24;;;;;;;3.15;2.78;;;18.20;62.00;;;;;;10083658;28;20476;-64
2022/05/15 05:50:17;;;;;;;4.05;2.80;;;18.30;62.10;;;;;;10081612;28;20056;-63
2022/05/15 05:55:11;;;;;;;4.00;2.70;;;18.30;61.90;;;;;;10096644;28;20121;-67
2022/05/15 06:00:07;;;;;;;6.68;2.92;;;18.20;62.50;;;;;;10093664;28;20029;-66
2022/05/15 06:04:58;;;;;;;4.30;2.97;;;18.20;62.50;;;;;;10081542;28;20199;-65
2022/05/15 06:09:50;;;;;;;4.85;2.83;;;18.40;62.40;;;;;;10083859;28;20377;-65
2022/05/15 06:14:41;;;;;;;5.25;2.58;;;18.40;62.40;;;;;;10082600;28;20535;-64
2022/05/15 06:19:32;;;;;;;8.27;3.55;;;18.50;62.90;;;;;;10077692;28;20131;-64
2022/05/15 06:24:25;;;;;;;3.30;2.80;;;18.50;62.70;;;;;;10075515;28;20076;-64
2022/05/15 06:29:16;;;;;;;4.63;3.15;;;18.60;62.80;;;;;;10099909;28;20029;-62
2022/05/15 06:34:06;;;;;;;4.10;2.40;;;18.70;62.70;;;;;;10096915;28;20020;-60
2022/05/15 06:38:57;;;;;;;3.78;2.35;;;18.80;62.50;;;;;;10098131;28;20744;-64
2022/05/15 06:43:48;;;;;;;5.10;3.33;;;18.90;62.30;;;;;;10091106;28;20025;-65
2022/05/15 06:48:41;;;;;;;3.55;2.35;;;18.80;62.40;;;;;;10088607;28;20021;-66
2022/05/15 06:53:33;;;;;;;5.25;2.45;;;18.90;62.40;;;;;;10100789;28;20380;-61
2022/05/15 06:58:24;;;;;;;2.83;2.03;;;18.90;62.40;;;;;;10091564;28;20047;-63
2022/05/15 07:03:15;;;;;;;3.25;2.40;;;18.90;62.30;;;;;;10088445;28;20217;-63
2022/05/15 07:08:08;;;;;;;4.70;2.88;;;19.10;62.00;;;;;;10072180;28;20108;-61
2022/05/15 07:12:59;;;;;;;5.28;2.45;;;19.10;62.00;;;;;;10094667;28;20033;-62
2022/05/15 07:17:49;;;;;;;5.13;2.42;;;19.30;61.90;;;;;;10096858;28;20053;-63
2022/05/15 07:22:40;;;;;;;5.43;3.20;;;19.50;61.60;;;;;;10096008;28;20100;-61
2022/05/15 07:27:31;;;;;;;2.83;2.20;;;19.50;61.70;;;;;;10097614;28;20029;-62
2022/05/15 07:32:21;;;;;;;3.72;2.30;;;19.60;61.50;;;;;;10100603;28;20052;-61
2022/05/15 07:37:12;;;;;;;4.00;2.30;;;19.80;61.30;;;;;;10098879;28;20083;-62
2022/05/15 07:42:03;;;;;;;3.60;2.38;;;19.70;61.30;;;;;;10096764;28;20053;-63
2022/05/15 07:46:54;;;;;;;6.28;3.45;;;19.80;61.50;;;;;;10106259;28;20112;-61
2022/05/15 07:51:44;;;;;;;3.80;2.67;;;19.90;61.30;;;;;;10080239;28;20061;-61
2022/05/15 07:56:35;;;;;;;4.18;2.45;;;20.10;61.00;;;;;;10094073;28;20029;-61
2022/05/15 08:01:26;;;;;;;5.10;3.00;;;20.30;60.90;;;;;;10089842;28;20510;-61
2022/05/15 08:11:28;;;;;;;4.72;2.90;;;20.30;60.60;;;;;;10080932;28;20031;-65
2022/05/15 08:16:19;;;;;;;4.22;2.28;;;20.40;60.50;;;;;;10074711;28;20030;-62
2022/05/15 08:26:20;;;;;;;3.83;2.15;;;20.80;59.80;;;;;;10070697;28;20140;-61
2022/05/15 08:31:10;;;;;;;4.30;2.65;;;20.90;59.70;;;;;;10091515;28;20036;-63
2022/05/15 08:36:02;;;;;;;4.70;2.15;;;21.10;59.50;;;;;;10082274;28;20017;-62
2022/05/15 08:41:15;;;;;;;8.80;4.00;;;21.20;59.40;;;;;;10068812;28;20039;-61
2022/05/15 08:46:40;;;;;;;2.65;1.95;;;21.20;59.30;;;;;;10069151;28;20051;-61
2022/05/15 08:51:31;;;;;;;4.10;2.30;;;21.30;59.40;;;;;;10091588;28;20117;-62
2022/05/15 08:56:22;;;;;;;3.30;2.28;;;21.40;59.10;;;;;;10098324;28;20116;-61
2022/05/15 09:01:17;;;;;;;2.10;1.90;;;21.60;58.90;;;;;;10096606;28;20056;-61
2022/05/15 09:06:37;;;;;;;3.20;2.10;;;21.70;59.30;;;;;;10092154;28;20323;-62
2022/05/15 09:11:37;;;;;;;4.40;2.45;;;21.70;58.70;;;;;;10103820;28;20044;-62
2022/05/15 09:16:28;;;;;;;3.20;1.98;;;22.00;58.50;;;;;;10088006;28;20241;-62
2022/05/15 09:21:19;;;;;;;5.97;2.33;;;22.10;58.30;;;;;;10093877;28;20099;-63
2022/05/15 09:26:29;;;;;;;2.90;2.10;;;22.40;58.50;;;;;;10086238;28;20469;-62
2022/05/15 09:31:35;;;;;;;2.97;2.10;;;22.60;57.50;;;;;;10095582;28;20032;-62
2022/05/15 09:36:34;;;;;;;5.60;2.65;;;22.60;57.60;;;;;;10091729;28;20207;-62
2022/05/15 09:46:56;;;;;;;4.85;1.70;;;22.70;57.40;;;;;;10045912;28;20036;-61
2022/05/15 09:51:57;;;;;;;3.63;2.17;;;22.90;57.00;;;;;;10089390;28;20405;-62
2022/05/15 09:56:48;;;;;;;3.85;2.00;;;23.00;56.40;;;;;;10083714;28;20021;-62
2022/05/15 10:01:47;;;;;;;2.00;1.45;;;23.00;56.10;;;;;;10100194;28;20399;-62
2022/05/15 10:06:50;;;;;;;5.57;2.15;;;23.10;55.70;;;;;;10094061;28;20483;-63
2022/05/15 10:11:50;;;;;;;2.80;1.75;;;23.30;55.60;;;;;;10087442;28;20021;-63
2022/05/15 10:16:50;;;;;;;3.03;1.67;;;23.30;55.10;;;;;;10074714;28;20387;-62
2022/05/15 10:21:49;;;;;;;3.35;1.30;;;23.50;55.10;;;;;;10088734;28;20056;-62
2022/05/15 10:27:02;;;;;;;3.03;2.30;;;23.80;54.80;;;;;;10097648;28;20371;-64
2022/05/15 10:31:58;;;;;;;5.75;2.30;;;23.90;54.30;;;;;;10093533;28;20044;-63
2022/05/15 10:37:04;;;;;;;2.08;1.52;;;24.10;54.40;;;;;;10087535;28;20037;-61
2022/05/15 10:42:24;;;;;;;8.07;2.63;;;24.10;54.20;;;;;;10076358;28;20536;-63
2022/05/15 10:47:18;;;;;;;5.82;2.97;;;24.20;53.80;;;;;;10085982;28;20517;-63
2022/05/15 10:52:41;;;;;;;4.88;2.70;;;24.30;53.80;;;;;;10075971;28;20029;-62
2022/05/15 10:57:50;;;;;;;3.65;1.88;;;24.30;53.70;;;;;;10089337;28;20029;-63
2022/05/15 11:02:55;;;;;;;3.10;2.45;;;24.50;53.60;;;;;;10086623;28;20018;-64
2022/05/15 11:08:14;;;;;;;3.55;1.63;;;24.60;53.60;;;;;;10089606;28;20024;-65
2022/05/15 11:13:12;;;;;;;2.88;2.17;;;24.90;53.40;;;;;;10081710;28;20030;-63
2022/05/15 11:18:37;;;;;;;6.43;2.00;;;25.00;53.20;;;;;;10080864;28;20041;-61
2022/05/15 11:23:47;;;;;;;4.25;2.10;;;25.10;53.30;;;;;;10077656;28;20620;-62
2022/05/15 11:28:45;;;;;;;2.00;1.83;;;25.10;53.20;;;;;;10084497;28;20149;-63
2022/05/15 11:33:51;;;;;;;2.97;1.45;;;25.20;52.90;;;;;;10071579;28;20052;-63
2022/05/15 11:38:59;;;;;;;6.13;3.35;;;25.30;52.30;;;;;;10087995;28;20117;-63
2022/05/15 11:44:00;;;;;;;5.78;2.83;;;25.60;52.50;;;;;;10091222;28;20032;-63
2022/05/15 11:48:53;;;;;;;2.72;1.90;;;25.70;52.30;;;;;;10092069;28;20045;-64
2022/05/15 11:53:55;;;;;;;3.13;1.38;;;25.70;52.30;;;;;;10072896;28;20052;-64
2022/05/15 11:59:02;;;;;;;3.00;2.08;;;25.90;52.00;;;;;;10066341;28;20431;-62
2022/05/15 12:04:08;;;;;;;3.80;2.30;;;26.00;51.70;;;;;;10085754;28;20043;-63
2022/05/15 12:09:17;;;;;;;4.75;2.58;;;26.20;51.50;;;;;;10097791;28;20017;-63
2022/05/15 12:14:25;;;;;;;2.13;1.83;;;26.50;51.10;;;;;;10093103;28;20029;-65
2022/05/15 12:19:24;;;;;;;2.80;2.05;;;27.10;50.80;;;;;;10095104;28;20076;-64
2022/05/15 12:24:27;;;;;;;3.17;1.80;;;27.60;51.20;;;;;;10084801;28;20277;-62
2022/05/15 12:29:18;;;;;;;2.30;1.33;;;28.00;51.40;;;;;;10092982;28;20084;-63
2022/05/15 12:34:15;;;;;;;3.38;2.42;;;28.20;51.20;;;;;;10075805;28;20083;-61
2022/05/15 12:39:10;;;;;;;2.38;1.70;;;28.60;50.70;;;;;;10098560;28;20045;-64
2022/05/15 12:44:02;;;;;;;2.35;1.75;;;29.00;50.60;;;;;;10094778;28;20029;-64
2022/05/15 12:48:53;;;;;;;;;;;29.60;50.40;;;;;;10090725;28;20117;-67
2022/05/15 12:53:48;;;;;;;3.15;1.15;;;30.20;50.00;;;;;;10105280;28;20406;-62
2022/05/15 12:58:40;;;;;;;2.97;1.88;;;31.30;49.10;;;;;;10078879;28;20033;-63
2022/05/15 13:03:31;;;;;;;3.45;1.30;;;33.10;47.60;;;;;;10082663;28;20079;-68
2022/05/15 13:08:23;;;;;;;4.00;1.98;;;34.00;45.90;;;;;;10066778;28;20021;-64
2022/05/15 13:13:23;;;;;;;3.33;1.52;;;34.80;44.40;;;;;;10073772;28;20022;-65
2022/05/15 13:18:14;;;;;;;2.57;1.80;;;35.70;42.60;;;;;;10093350;28;20131;-64
2022/05/15 13:23:06;;;;;;;2.85;1.90;;;36.20;42.20;;;;;;10092983;28;20037;-65
2022/05/15 13:27:57;;;;;;;2.97;1.55;;;37.20;41.10;;;;;;10082930;28;20033;-64
2022/05/15 13:32:51;;;;;;;2.30;1.60;;;37.40;40.20;;;;;;10079369;28;20384;-64
2022/05/15 13:37:46;;;;;;;1.40;1.25;;;37.50;39.50;;;;;;10075162;28;20167;-63
2022/05/15 13:48:06;;;;;;;3.78;1.92;;;38.90;37.70;;;;;;10102248;28;20039;-63
2022/05/15 13:53:25;;;;;;;1.98;1.42;;;39.00;36.70;;;;;;10092018;28;20019;-64
2022/05/15 13:58:15;;;;;;;2.58;1.55;;;39.10;36.10;;;;;;10102783;28;20098;-62
2022/05/15 14:03:08;;;;;;;2.97;1.98;;;38.70;36.30;;;;;;10102767;28;20540;-68
2022/05/15 14:08:18;;;;;;;3.30;2.10;;;38.80;35.90;;;;;;10107457;28;20337;-64
2022/05/15 14:13:10;;;;;;;2.80;1.48;;;38.70;35.00;;;;;;10107738;28;20039;-65
2022/05/15 14:18:12;;;;;;;1.77;1.42;;;38.20;35.40;;;;;;10103362;28;20028;-63
2022/05/15 14:23:03;;;;;;;3.33;2.60;;;38.10;34.80;;;;;;10102808;28;20091;-64
2022/05/15 14:27:54;;;;;;;2.35;1.85;;;38.70;34.60;;;;;;10112520;28;20032;-65
2022/05/15 14:32:55;;;;;;;3.58;2.70;;;39.00;34.30;;;;;;10091956;28;20029;-63
2022/05/15 14:37:46;;;;;;;2.65;2.10;;;39.20;33.80;;;;;;10095453;28;20076;-64
2022/05/15 14:42:36;;;;;;;2.80;2.20;;;39.20;33.80;;;;;;10084475;28;20021;-66
2022/05/15 14:47:32;;;;;;;2.38;2.13;;;38.80;33.70;;;;;;10088046;28;20036;-64
2022/05/15 14:52:30;;;;;;;3.55;2.45;;;38.90;33.40;;;;;;10075449;28;20502;-65
2022/05/15 14:57:22;;;;;;;3.15;1.75;;;39.10;33.20;;;;;;10097646;28;20029;-62
2022/05/15 15:02:13;;;;;;;2.60;1.73;;;39.30;33.00;;;;;;10096191;28;20459;-63
2022/05/15 15:07:05;;;;;;;2.58;1.70;;;39.00;32.80;;;;;;10097377;28;20029;-63
2022/05/15 15:11:55;;;;;;;2.92;2.40;;;38.90;32.90;;;;;;10101534;28;20311;-62
2022/05/15 15:16:49;;;;;;;2.20;1.90;;;39.10;32.80;;;;;;10100492;28;20106;-64
2022/05/15 15:21:41;;;;;;;4.07;1.67;;;39.30;32.70;;;;;;10094224;28;20119;-62
2022/05/15 15:26:32;;;;;;;3.03;1.52;;;38.60;32.90;;;;;;10086893;28;20041;-63
2022/05/15 15:31:27;;;;;;;2.83;1.52;;;38.60;32.80;;;;;;10069206;28;20407;-64
2022/05/15 15:36:18;;;;;;;1.90;1.50;;;38.10;33.00;;;;;;10099196;28;20036;-64
2022/05/15 15:41:11;;;;;;;4.75;1.92;;;38.60;32.80;;;;;;10088945;28;20051;-63
2022/05/15 15:46:06;;;;;;;1.60;1.48;;;39.20;32.40;;;;;;10077028;28;20105;-66
2022/05/15 15:50:57;;;;;;;3.33;1.77;;;38.70;32.70;;;;;;10078500;28;20029;-62
2022/05/15 15:55:47;;;;;;;1.65;1.55;;;38.40;32.70;;;;;;10081928;28;20032;-62
2022/05/15 16:00:41;;;;;;;4.45;1.90;;;38.40;32.70;;;;;;10098641;28;20758;-63
2022/05/15 16:05:32;;;;;;;2.90;1.92;;;39.00;32.40;;;;;;10099685;28;20017;-63
2022/05/15 16:10:23;;;;;;;2.08;1.75;;;40.10;31.70;;;;;;10076593;28;20025;-64
2022/05/15 16:15:14;;;;;;;;;;;39.00;32.40;;;;;;10106300;28;20031;-64
2022/05/15 16:20:06;;;;;;;2.33;1.85;;;39.60;31.70;;;;;;10102504;28;20151;-63
2022/05/15 16:25:01;;;;;;;3.60;1.50;;;38.30;32.50;;;;;;10099113;28;20041;-63
2022/05/15 16:29:56;;;;;;;4.47;1.52;;;38.10;32.30;;;;;;10088130;28;20024;-63
2022/05/15 16:34:47;;;;;;;3.38;1.95;;;37.90;32.50;;;;;;10095118;28;20040;-64
2022/05/15 16:39:38;;;;;;;2.97;1.65;;;36.70;33.10;;;;;;10074835;28;20199;-65
2022/05/15 16:44:28;;;;;;;1.88;1.40;;;35.60;33.80;;;;;;10061091;28;20029;-63
2022/05/15 16:49:20;;;;;;;2.55;1.42;;;35.80;33.70;;;;;;10059055;28;20157;-65
2022/05/15 16:54:10;;;;;;;5.70;1.75;;;35.50;33.70;;;;;;10085874;28;20403;-65
2022/05/15 16:59:01;;;;;;;2.10;1.55;;;34.90;34.30;;;;;;10091717;28;20048;-66
2022/05/15 17:03:52;;;;;;;2.17;1.50;;;34.30;34.80;;;;;;10087134;28;20021;-64
2022/05/15 17:08:46;;;;;;;3.65;1.70;;;34.70;34.50;;;;;;10093129;28;20116;-62
2022/05/15 17:13:36;;;;;;;3.83;1.83;;;35.20;34.40;;;;;;10086552;28;20020;-61
2022/05/15 17:18:27;;;;;;;2.85;1.90;;;35.50;34.40;;;;;;10076521;28;20048;-67
2022/05/15 17:23:17;;;;;;;5.90;2.40;;;37.40;33.40;;;;;;10073511;28;20123;-63
2022/05/15 17:28:09;;;;;;;3.03;1.58;;;36.70;33.70;;;;;;10098768;28;20063;-63
2022/05/15 17:38:09;;;;;;;3.13;1.50;;;34.50;35.30;;;;;;10100174;28;20113;-64
2022/05/15 17:43:00;;;;;;;3.78;2.03;;;33.50;35.80;;;;;;10087362;28;20100;-67
2022/05/15 17:47:52;;;;;;;3.30;1.83;;;32.40;36.70;;;;;;10068381;28;20028;-63
2022/05/15 17:52:43;;;;;;;3.63;2.20;;;31.60;37.10;;;;;;10065055;28;20363;-62
2022/05/15 17:57:33;;;;;;;4.18;2.35;;;31.10;37.40;;;;;;10090088;28;20040;-65
2022/05/15 18:02:25;;;;;;;2.17;1.83;;;30.60;37.80;;;;;;10094913;28;20052;-66
2022/05/15 18:07:16;;;;;;;3.08;2.67;;;30.30;38.00;;;;;;10089204;28;20025;-65
2022/05/15 18:12:09;;;;;;;3.42;2.17;;;30.10;38.30;;;;;;10097164;28;20029;-66
2022/05/15 18:17:00;;;;;;;2.60;1.77;;;30.10;38.30;;;;;;10090118;28;20070;-64
2022/05/15 18:21:50;;;;;;;3.72;1.67;;;29.80;38.60;;;;;;10075993;28;20432;-66
2022/05/15 18:26:41;;;;;;;3.35;1.75;;;29.70;38.90;;;;;;10075921;28;20049;-66
2022/05/15 18:31:32;;;;;;;4.32;1.48;;;29.60;39.10;;;;;;10093345;28;20491;-65
2022/05/15 18:36:22;;;;;;;1.92;1.65;;;29.30;39.50;;;;;;10102044;28;20316;-66
2022/05/15 18:41:13;;;;;;;5.00;1.73;;;29.20;39.70;;;;;;10089302;28;20045;-64
2022/05/15 18:46:04;;;;;;;3.97;2.35;;;29.00;40.00;;;;;;10067505;28;20186;-66
2022/05/15 18:56:05;;;;;;;4.50;2.85;;;28.80;40.20;;;;;;10085977;28;20072;-66
2022/05/15 19:00:56;;;;;;;3.45;1.73;;;28.70;40.40;;;;;;10098603;28;20110;-65
2022/05/15 19:05:47;;;;;;;4.45;2.05;;;28.40;40.70;;;;;;10085459;28;20025;-66
2022/05/15 19:10:38;;;;;;;6.70;2.30;;;28.30;40.80;;;;;;10092317;28;20917;-68
2022/05/15 19:15:29;;;;;;;3.58;1.95;;;28.20;40.80;;;;;;10092295;28;20494;-65
2022/05/15 19:20:20;;;;;;;4.13;2.15;;;28.10;41.10;;;;;;10094614;28;20099;-65
2022/05/15 19:25:12;;;;;;;2.85;1.85;;;28.00;41.10;;;;;;10084945;28;20050;-65
2022/05/15 19:30:03;;;;;;;5.72;2.53;;;27.90;41.40;;;;;;10088209;28;20025;-67
2022/05/15 19:34:58;;;;;;;2.42;2.20;;;27.90;41.40;;;;;;10100823;28;20048;-66
2022/05/15 19:39:51;;;;;;;2.45;1.88;;;27.80;41.50;;;;;;10063748;28;20053;-70
2022/05/15 19:44:42;;;;;;;5.60;2.72;;;27.70;41.70;;;;;;10082906;28;20025;-65
2022/05/15 19:49:35;;;;;;;3.90;2.20;;;27.60;41.90;;;;;;10074879;28;20123;-70
2022/05/15 19:54:26;;;;;;;2.87;1.90;;;27.60;42.10;;;;;;10100324;28;20132;-68
2022/05/15 19:59:18;;;;;;;4.82;2.97;;;27.50;42.10;;;;;;10100005;28;20169;-74
2022/05/15 20:04:09;;;;;;;3.33;2.10;;;27.40;42.20;;;;;;10099784;28;20021;-69
2022/05/15 20:14:11;;;;;;;4.70;2.55;;;27.30;42.50;;;;;;10086971;28;20147;-68
2022/05/15 20:19:03;;;;;;;5.00;2.55;;;27.30;42.70;;;;;;10090840;28;20033;-72
2022/05/15 20:23:53;;;;;;;5.45;2.83;;;27.10;43.30;;;;;;10080763;28;20525;-69
2022/05/15 20:28:45;;;;;;;3.28;2.45;;;27.00;43.80;;;;;;10078807;28;20267;-69
2022/05/15 20:33:36;;;;;;;4.65;2.15;;;26.90;43.50;;;;;;10076962;28;20025;-68
2022/05/15 20:38:26;;;;;;;4.80;2.03;;;26.80;43.70;;;;;;10076473;28;20045;-68
2022/05/15 20:43:17;;;;;;;3.78;2.22;;;26.80;44.00;;;;;;10079285;28;20032;-67
2022/05/15 20:48:08;;;;;;;3.45;1.75;;;26.70;43.90;;;;;;10069399;28;20040;-68
2022/05/15 20:52:59;;;;;;;4.18;2.30;;;26.60;45.00;;;;;;10088113;28;20036;-67
2022/05/15 20:57:50;;;;;;;2.75;1.65;;;26.60;44.50;;;;;;10072798;28;20408;-67
2022/05/15 21:02:41;;;;;;;4.85;2.65;;;26.60;44.60;;;;;;10080566;28;20410;-67
2022/05/15 21:07:32;;;;;;;5.72;2.67;;;26.50;45.00;;;;;;10087606;28;20021;-67
2022/05/15 21:12:23;;;;;;;2.55;1.98;;;26.40;44.90;;;;;;10084133;28;20494;-69
2022/05/15 21:17:14;;;;;;;6.47;2.00;;;26.40;45.20;;;;;;10076736;28;20149;-68
2022/05/15 21:22:05;;;;;;;5.15;2.58;;;26.30;45.40;;;;;;10087168;28;20040;-69
2022/05/15 21:26:55;;;;;;;8.68;2.85;;;26.30;45.60;;;;;;10079051;28;20045;-67
2022/05/15 21:31:46;;;;;;;6.30;2.20;;;26.20;45.70;;;;;;10073889;28;20079;-67
2022/05/15 21:36:37;;;;;;;4.10;2.15;;;26.20;45.90;;;;;;10085206;28;20021;-67
2022/05/15 21:46:37;;;;;;;4.35;2.33;;;26.10;46.20;;;;;;10057427;28;20036;-67
2022/05/15 21:51:28;;;;;;;4.38;2.58;;;25.90;46.40;;;;;;10087953;28;20031;-67
2022/05/15 21:56:19;;;;;;;3.70;2.53;;;25.90;46.60;;;;;;10091580;28;20031;-67
2022/05/15 22:01:11;;;;;;;5.20;2.47;;;25.70;46.90;;;;;;10083096;28;20473;-68
2022/05/15 22:06:13;;;;;;;5.22;2.08;;;25.50;47.10;;;;;;10092386;28;20017;-68
2022/05/15 22:11:06;;;;;;;5.68;2.55;;;25.40;47.30;;;;;;10089839;28;20028;-68
2022/05/15 22:15:58;;;;;;;5.50;2.90;;;25.50;47.40;;;;;;10086078;28;20025;-67
2022/05/15 22:20:50;;;;;;;3.95;1.95;;;25.10;47.60;;;;;;10089971;28;20053;-68
2022/05/15 22:25:41;;;;;;;5.85;2.25;;;25.10;47.90;;;;;;10070850;28;20037;-68
2022/05/15 22:30:32;;;;;;;3.83;2.53;;;25.20;48.00;;;;;;10082628;28;20039;-67
2022/05/15 22:35:22;;;;;;;3.13;2.50;;;25.00;48.20;;;;;;10084620;28;20030;-68
2022/05/15 22:40:13;;;;;;;3.03;2.00;;;25.00;48.30;;;;;;10094507;28;20065;-68
2022/05/15 22:45:04;;;;;;;3.22;2.00;;;24.90;48.40;;;;;;10100897;28;20045;-69
2022/05/15 22:49:55;;;;;;;2.28;1.88;;;24.60;48.90;;;;;;10103384;28;20017;-68
2022/05/15 22:54:45;;;;;;;2.05;1.63;;;24.70;48.70;;;;;;10092517;28;20487;-68
2022/05/15 22:59:36;;;;;;;3.28;2.35;;;24.90;48.80;;;;;;10096075;28;20037;-67
2022/05/15 23:09:36;;;;;;;4.05;1.77;;;24.70;49.20;;;;;;10086052;28;20047;-68
2022/05/15 23:14:27;;;;;;;5.05;2.10;;;24.70;49.30;;;;;;10095557;28;20020;-67
2022/05/15 23:19:17;;;;;;;3.53;1.80;;;24.80;49.30;;;;;;10097170;28;20037;-69
2022/05/15 23:24:08;;;;;;;4.28;2.15;;;24.70;50.00;;;;;;10096677;28;20076;-68
2022/05/15 23:29:00;;;;;;;5.03;2.00;;;24.80;49.40;;;;;;10097399;28;20033;-67
2022/05/15 23:33:51;;;;;;;5.15;1.88;;;24.60;49.60;;;;;;10090806;28;20140;-68
2022/05/15 23:38:41;;;;;;;3.55;2.33;;;24.10;50.50;;;;;;10070509;28;20579;-67
2022/05/15 23:43:32;;;;;;;3.65;2.50;;;23.70;51.50;;;;;;10069017;28;20438;-67
2022/05/15 23:48:24;;;;;;;5.95;2.97;;;23.50;51.60;;;;;;10058143;28;20081;-68
2022/05/15 23:53:15;;;;;;;2.50;1.90;;;23.50;51.50;;;;;;10093631;28;20024;-69
2022/05/15 23:58:08;;;;;;;2.85;1.90;;;23.70;51.40;;;;;;10087556;28;20083;-68
